createdAt,value
2018-03-17T00:00:02.391Z,0
2018-03-17T00:01:11.867Z,0
2018-03-17T00:02:21.053Z,0
2018-03-17T00:03:30.244Z,0
2018-03-17T00:04:39.506Z,0
2018-03-17T00:05:48.464Z,0
2018-03-17T00:06:57.637Z,0
2018-03-17T00:08:06.563Z,0
2018-03-17T00:09:15.618Z,0
2018-03-17T00:10:25.067Z,0
2018-03-17T00:11:34.556Z,0
2018-03-17T00:12:43.196Z,0
2018-03-17T00:13:52.375Z,0
2018-03-17T00:15:01.531Z,0
2018-03-17T00:16:10.463Z,0
2018-03-17T00:17:19.447Z,0
2018-03-17T00:18:28.615Z,0
2018-03-17T00:19:38.015Z,0
2018-03-17T00:20:46.942Z,0
2018-03-17T00:21:56.383Z,0
2018-03-17T00:23:05.826Z,0
2018-03-17T00:24:15.010Z,0
2018-03-17T00:25:24.157Z,0
2018-03-17T00:26:33.590Z,0
2018-03-17T00:27:42.268Z,0
2018-03-17T00:28:51.178Z,0
2018-03-17T00:30:00.099Z,0
2018-03-17T00:31:09.508Z,0
2018-03-17T00:32:18.491Z,0
2018-03-17T00:33:27.434Z,0
2018-03-17T00:34:36.361Z,0
2018-03-17T00:35:45.272Z,0
2018-03-17T00:36:54.947Z,0
2018-03-17T00:38:04.649Z,0
2018-03-17T00:39:13.301Z,0
2018-03-17T00:40:22.471Z,0
2018-03-17T00:41:31.127Z,0
2018-03-17T00:42:40.298Z,0
2018-03-17T00:43:49.200Z,0
2018-03-17T00:44:58.429Z,0
2018-03-17T00:46:07.610Z,0
2018-03-17T00:47:17.296Z,0
2018-03-17T00:48:26.202Z,0
2018-03-17T00:49:35.366Z,0
2018-03-17T00:50:44.522Z,0
2018-03-17T00:51:53.154Z,0
2018-03-17T00:53:02.610Z,0
2018-03-17T00:54:11.251Z,0
2018-03-17T00:55:20.445Z,0
2018-03-17T00:56:29.343Z,0
2018-03-17T00:57:37.987Z,0
2018-03-17T00:58:46.902Z,0
2018-03-17T00:59:56.068Z,0
2018-03-17T01:01:05.759Z,0
2018-03-17T01:02:14.903Z,0
2018-03-17T01:03:23.535Z,0
2018-03-17T01:04:32.708Z,0
2018-03-17T01:05:41.877Z,0
2018-03-17T01:06:51.034Z,0
2018-03-17T01:07:59.932Z,0
2018-03-17T01:09:08.829Z,0
2018-03-17T01:10:17.726Z,0
2018-03-17T01:11:26.618Z,0
2018-03-17T01:12:35.779Z,0
2018-03-17T01:13:44.943Z,0
2018-03-17T01:14:53.839Z,0
2018-03-17T01:16:02.999Z,0
2018-03-17T01:17:12.157Z,0
2018-03-17T01:18:21.318Z,0
2018-03-17T01:19:30.479Z,0
2018-03-17T01:20:39.949Z,0
2018-03-17T01:21:48.602Z,0
2018-03-17T01:22:58.033Z,0
2018-03-17T01:24:07.235Z,0
2018-03-17T01:25:15.882Z,0
2018-03-17T01:26:25.028Z,0
2018-03-17T01:27:33.936Z,0
2018-03-17T01:28:43.117Z,0
2018-03-17T01:29:51.737Z,0
2018-03-17T01:31:01.153Z,0
2018-03-17T01:32:10.070Z,0
2018-03-17T01:33:18.723Z,0
2018-03-17T01:34:28.157Z,0
2018-03-17T01:35:37.327Z,0
2018-03-17T01:36:46.211Z,0
2018-03-17T01:37:55.877Z,0
2018-03-17T01:39:04.762Z,0
2018-03-17T01:40:13.924Z,0
2018-03-17T01:41:23.094Z,0
2018-03-17T01:42:32.260Z,0
2018-03-17T01:43:40.916Z,0
2018-03-17T01:44:49.827Z,0
2018-03-17T01:45:58.973Z,0
2018-03-17T01:47:07.862Z,0
2018-03-17T01:48:16.760Z,0
2018-03-17T01:49:25.412Z,0
2018-03-17T01:50:34.842Z,0
2018-03-17T01:51:44.261Z,0
2018-03-17T01:52:52.896Z,0
2018-03-17T01:54:01.795Z,0
2018-03-17T01:55:10.969Z,0
2018-03-17T01:56:19.870Z,0
2018-03-17T01:57:29.595Z,0
2018-03-17T01:58:38.503Z,0
2018-03-17T01:59:47.655Z,0
2018-03-17T02:00:56.314Z,0
2018-03-17T02:02:04.942Z,0
2018-03-17T02:03:14.094Z,0
2018-03-17T02:04:23.255Z,0
2018-03-17T02:05:32.150Z,0
2018-03-17T02:06:41.056Z,0
2018-03-17T02:07:49.953Z,0
2018-03-17T02:08:58.586Z,0
2018-03-17T02:10:07.746Z,0
2018-03-17T02:11:16.388Z,0
2018-03-17T02:12:25.821Z,0
2018-03-17T02:13:34.721Z,0
2018-03-17T02:14:43.639Z,0
2018-03-17T02:15:52.798Z,0
2018-03-17T02:17:01.978Z,0
2018-03-17T02:18:11.430Z,0
2018-03-17T02:19:20.089Z,0
2018-03-17T02:20:29.260Z,0
2018-03-17T02:21:38.945Z,0
2018-03-17T02:22:47.867Z,0
2018-03-17T02:23:56.764Z,0
2018-03-17T02:25:05.937Z,0
2018-03-17T02:26:15.118Z,0
2018-03-17T02:27:24.294Z,0
2018-03-17T02:28:33.182Z,0
2018-03-17T02:29:42.342Z,0
2018-03-17T02:30:50.992Z,0
2018-03-17T02:32:00.146Z,0
2018-03-17T02:33:09.354Z,0
2018-03-17T02:34:18.291Z,0
2018-03-17T02:35:27.912Z,0
2018-03-17T02:36:36.844Z,0
2018-03-17T02:37:45.804Z,0
2018-03-17T02:38:55.491Z,0
2018-03-17T02:40:04.959Z,0
2018-03-17T02:41:14.129Z,0
2018-03-17T02:42:23.320Z,0
2018-03-17T02:43:31.985Z,0
2018-03-17T02:44:40.908Z,0
2018-03-17T02:45:50.347Z,0
2018-03-17T02:46:59.781Z,0
2018-03-17T02:48:08.942Z,0
2018-03-17T02:49:18.103Z,0
2018-03-17T02:50:27.267Z,0
2018-03-17T02:51:36.493Z,0
2018-03-17T02:52:46.465Z,0
2018-03-17T02:53:55.650Z,0
2018-03-17T02:55:05.092Z,0
2018-03-17T02:56:14.851Z,0
2018-03-17T02:57:23.756Z,0
2018-03-17T02:58:32.986Z,0
2018-03-17T02:59:42.415Z,0
2018-03-17T03:00:51.883Z,0
2018-03-17T03:02:00.815Z,0
2018-03-17T03:03:09.972Z,0
2018-03-17T03:04:18.894Z,0
2018-03-17T03:05:28.341Z,0
2018-03-17T03:06:37.775Z,0
2018-03-17T03:07:47.230Z,0
2018-03-17T03:08:56.675Z,0
2018-03-17T03:10:05.593Z,0
2018-03-17T03:11:15.011Z,0
2018-03-17T03:12:23.667Z,0
2018-03-17T03:13:32.567Z,0
2018-03-17T03:14:41.998Z,0
2018-03-17T03:15:51.198Z,0
2018-03-17T03:17:00.114Z,0
2018-03-17T03:18:09.041Z,0
2018-03-17T03:19:18.205Z,0
2018-03-17T03:20:27.363Z,0
2018-03-17T03:21:36.272Z,0
2018-03-17T03:22:44.935Z,0
2018-03-17T03:23:53.821Z,0
2018-03-17T03:25:02.976Z,0
2018-03-17T03:26:11.623Z,0
2018-03-17T03:27:21.106Z,0
2018-03-17T03:28:29.763Z,0
2018-03-17T03:29:38.939Z,0
2018-03-17T03:30:48.098Z,0
2018-03-17T03:31:57.265Z,0
2018-03-17T03:33:06.205Z,0
2018-03-17T03:34:15.626Z,0
2018-03-17T03:35:25.045Z,0
2018-03-17T03:36:33.948Z,0
2018-03-17T03:37:43.626Z,0
2018-03-17T03:38:52.796Z,0
2018-03-17T03:40:01.992Z,0
2018-03-17T03:41:11.678Z,0
2018-03-17T03:42:21.129Z,0
2018-03-17T03:43:30.277Z,0
2018-03-17T03:44:39.932Z,0
2018-03-17T03:45:49.354Z,0
2018-03-17T03:46:58.264Z,0
2018-03-17T03:48:07.424Z,0
2018-03-17T03:49:17.397Z,0
2018-03-17T03:50:26.562Z,0
2018-03-17T03:51:35.504Z,0
2018-03-17T03:52:44.405Z,0
2018-03-17T03:53:53.575Z,0
2018-03-17T03:55:02.739Z,0
2018-03-17T03:56:12.416Z,0
2018-03-17T03:57:21.577Z,0
2018-03-17T03:58:30.268Z,0
2018-03-17T03:59:39.169Z,0
2018-03-17T04:00:48.340Z,0
2018-03-17T04:01:57.231Z,0
2018-03-17T04:03:05.859Z,0
2018-03-17T04:04:14.796Z,0
2018-03-17T04:05:24.260Z,0
2018-03-17T04:06:33.155Z,0
2018-03-17T04:07:42.578Z,0
2018-03-17T04:08:51.478Z,0
2018-03-17T04:10:01.162Z,0
2018-03-17T04:11:10.071Z,0
2018-03-17T04:12:19.789Z,0
2018-03-17T04:13:29.230Z,0
2018-03-17T04:14:37.881Z,0
2018-03-17T04:15:46.781Z,0
2018-03-17T04:16:55.428Z,0
2018-03-17T04:18:04.340Z,0
2018-03-17T04:19:13.523Z,0
2018-03-17T04:20:22.422Z,0
2018-03-17T04:21:31.602Z,0
2018-03-17T04:22:40.242Z,0
2018-03-17T04:23:49.405Z,0
2018-03-17T04:24:58.836Z,0
2018-03-17T04:26:08.000Z,0
2018-03-17T04:27:16.906Z,0
2018-03-17T04:28:25.848Z,0
2018-03-17T04:29:35.047Z,0
2018-03-17T04:30:43.743Z,0
2018-03-17T04:31:52.914Z,0
2018-03-17T04:33:01.564Z,0
2018-03-17T04:34:10.487Z,0
2018-03-17T04:35:19.448Z,0
2018-03-17T04:36:28.622Z,0
2018-03-17T04:37:37.509Z,0
2018-03-17T04:38:46.932Z,0
2018-03-17T04:39:56.360Z,0
2018-03-17T04:41:05.544Z,0
2018-03-17T04:42:14.970Z,0
2018-03-17T04:43:24.202Z,0
2018-03-17T04:44:33.130Z,0
2018-03-17T04:45:41.769Z,0
2018-03-17T04:46:50.929Z,0
2018-03-17T04:47:59.846Z,0
2018-03-17T04:49:09.011Z,0
2018-03-17T04:50:17.921Z,0
2018-03-17T04:51:26.826Z,0
2018-03-17T04:52:35.721Z,0
2018-03-17T04:53:44.872Z,0
2018-03-17T04:54:54.046Z,0
2018-03-17T04:56:03.202Z,0
2018-03-17T04:57:12.367Z,0
2018-03-17T04:58:21.012Z,0
2018-03-17T04:59:30.440Z,0
2018-03-17T05:00:39.341Z,0
2018-03-17T05:01:48.769Z,0
2018-03-17T05:02:57.936Z,0
2018-03-17T05:04:07.171Z,0
2018-03-17T05:05:16.174Z,0
2018-03-17T05:06:25.062Z,0
2018-03-17T05:07:33.960Z,0
2018-03-17T05:08:43.383Z,0
2018-03-17T05:09:52.011Z,0
2018-03-17T05:11:01.714Z,0
2018-03-17T05:12:10.634Z,0
2018-03-17T05:13:19.820Z,0
2018-03-17T05:14:28.725Z,0
2018-03-17T05:15:37.891Z,0
2018-03-17T05:16:47.073Z,0
2018-03-17T05:17:56.226Z,0
2018-03-17T05:19:05.122Z,0
2018-03-17T05:20:14.316Z,0
2018-03-17T05:21:23.202Z,0
2018-03-17T05:22:32.150Z,0
2018-03-17T05:23:41.054Z,0
2018-03-17T05:24:49.705Z,0
2018-03-17T05:25:58.614Z,0
2018-03-17T05:27:07.767Z,0
2018-03-17T05:28:16.926Z,0
2018-03-17T05:29:25.854Z,4
2018-03-17T05:30:34.996Z,4
2018-03-17T05:31:44.238Z,4
2018-03-17T05:32:53.423Z,4
2018-03-17T05:34:02.579Z,4
2018-03-17T05:35:11.218Z,4
2018-03-17T05:36:20.108Z,4
2018-03-17T05:37:29.274Z,4
2018-03-17T05:38:38.970Z,4
2018-03-17T05:39:47.877Z,8
2018-03-17T05:40:56.793Z,8
2018-03-17T05:42:05.941Z,8
2018-03-17T05:43:15.152Z,12
2018-03-17T05:44:24.319Z,12
2018-03-17T05:45:33.243Z,12
2018-03-17T05:46:42.394Z,12
2018-03-17T05:47:51.559Z,12
2018-03-17T05:49:00.453Z,12
2018-03-17T05:50:09.125Z,12
2018-03-17T05:51:18.058Z,20
2018-03-17T05:52:26.701Z,20
2018-03-17T05:53:35.858Z,12
2018-03-17T05:54:45.308Z,16
2018-03-17T05:55:53.960Z,16
2018-03-17T05:57:03.129Z,20
2018-03-17T05:58:12.548Z,20
2018-03-17T05:59:21.222Z,24
2018-03-17T06:00:30.411Z,24
2018-03-17T06:01:39.308Z,24
2018-03-17T06:02:48.546Z,28
2018-03-17T06:03:57.175Z,20
2018-03-17T06:05:06.349Z,20
2018-03-17T06:06:15.249Z,24
2018-03-17T06:07:24.675Z,28
2018-03-17T06:08:33.632Z,24
2018-03-17T06:09:42.814Z,32
2018-03-17T06:10:51.712Z,40
2018-03-17T06:12:00.868Z,36
2018-03-17T06:13:09.497Z,36
2018-03-17T06:14:19.194Z,36
2018-03-17T06:15:28.356Z,36
2018-03-17T06:16:37.291Z,40
2018-03-17T06:17:46.481Z,44
2018-03-17T06:18:55.117Z,40
2018-03-17T06:20:03.768Z,40
2018-03-17T06:21:12.955Z,44
2018-03-17T06:22:21.909Z,44
2018-03-17T06:23:31.593Z,52
2018-03-17T06:24:40.762Z,64
2018-03-17T06:25:49.689Z,60
2018-03-17T06:26:58.654Z,56
2018-03-17T06:28:07.309Z,60
2018-03-17T06:29:16.989Z,64
2018-03-17T06:30:25.928Z,60
2018-03-17T06:31:34.842Z,84
2018-03-17T06:32:44.017Z,96
2018-03-17T06:33:53.436Z,100
2018-03-17T06:35:03.104Z,104
2018-03-17T06:36:12.271Z,96
2018-03-17T06:37:20.933Z,100
2018-03-17T06:38:30.339Z,108
2018-03-17T06:39:39.259Z,116
2018-03-17T06:40:48.419Z,124
2018-03-17T06:41:57.849Z,136
2018-03-17T06:43:07.034Z,140
2018-03-17T06:44:16.213Z,152
2018-03-17T06:45:25.370Z,156
2018-03-17T06:46:34.273Z,156
2018-03-17T06:47:43.431Z,164
2018-03-17T06:48:52.065Z,180
2018-03-17T06:50:01.402Z,196
2018-03-17T06:51:10.264Z,204
2018-03-17T06:52:19.168Z,216
2018-03-17T06:53:28.082Z,224
2018-03-17T06:54:37.503Z,228
2018-03-17T06:55:46.136Z,216
2018-03-17T06:56:55.028Z,208
2018-03-17T06:58:03.939Z,192
2018-03-17T06:59:12.847Z,184
2018-03-17T07:00:21.749Z,180
2018-03-17T07:01:31.154Z,168
2018-03-17T07:02:40.050Z,160
2018-03-17T07:03:49.255Z,164
2018-03-17T07:04:58.412Z,160
2018-03-17T07:06:07.305Z,152
2018-03-17T07:07:16.207Z,160
2018-03-17T07:08:25.105Z,176
2018-03-17T07:09:34.519Z,152
2018-03-17T07:10:43.417Z,144
2018-03-17T07:11:52.828Z,144
2018-03-17T07:13:01.481Z,144
2018-03-17T07:14:10.649Z,144
2018-03-17T07:15:19.811Z,184
2018-03-17T07:16:29.497Z,172
2018-03-17T07:17:38.178Z,164
2018-03-17T07:18:47.108Z,176
2018-03-17T07:19:56.330Z,184
2018-03-17T07:21:05.512Z,240
2018-03-17T07:22:15.194Z,336
2018-03-17T07:23:24.375Z,392
2018-03-17T07:24:33.377Z,352
2018-03-17T07:25:42.232Z,312
2018-03-17T07:26:51.408Z,264
2018-03-17T07:28:00.339Z,268
2018-03-17T07:29:08.990Z,248
2018-03-17T07:30:17.625Z,296
2018-03-17T07:31:26.818Z,408
2018-03-17T07:32:35.717Z,460
2018-03-17T07:33:44.877Z,428
2018-03-17T07:34:54.314Z,424
2018-03-17T07:36:03.250Z,476
2018-03-17T07:37:12.424Z,540
2018-03-17T07:38:21.570Z,668
2018-03-17T07:39:30.990Z,716
2018-03-17T07:40:40.158Z,680
2018-03-17T07:41:49.580Z,588
2018-03-17T07:42:58.731Z,596
2018-03-17T07:44:07.724Z,440
2018-03-17T07:45:16.660Z,392
2018-03-17T07:46:25.932Z,508
2018-03-17T07:47:35.363Z,488
2018-03-17T07:48:44.275Z,372
2018-03-17T07:49:53.172Z,420
2018-03-17T07:51:02.361Z,504
2018-03-17T07:52:11.410Z,548
2018-03-17T07:53:20.758Z,588
2018-03-17T07:54:29.644Z,512
2018-03-17T07:55:38.565Z,432
2018-03-17T07:56:47.518Z,492
2018-03-17T07:57:56.181Z,476
2018-03-17T07:59:05.332Z,420
2018-03-17T08:00:14.000Z,396
2018-03-17T08:01:22.637Z,388
2018-03-17T08:02:31.543Z,392
2018-03-17T08:03:40.261Z,396
2018-03-17T08:04:49.420Z,372
2018-03-17T08:05:58.939Z,444
2018-03-17T08:07:07.583Z,460
2018-03-17T08:08:16.826Z,484
2018-03-17T08:09:25.971Z,484
2018-03-17T08:10:35.162Z,476
2018-03-17T08:11:44.656Z,460
2018-03-17T08:12:54.130Z,456
2018-03-17T08:14:03.035Z,444
2018-03-17T08:15:11.698Z,472
2018-03-17T08:16:20.604Z,428
2018-03-17T08:17:29.772Z,376
2018-03-17T08:18:38.962Z,372
2018-03-17T08:19:47.898Z,384
2018-03-17T08:20:57.253Z,360
2018-03-17T08:22:06.726Z,328
2018-03-17T08:23:15.644Z,336
2018-03-17T08:24:24.559Z,376
2018-03-17T08:25:33.476Z,388
2018-03-17T08:26:42.398Z,364
2018-03-17T08:27:51.566Z,404
2018-03-17T08:29:01.031Z,428
2018-03-17T08:30:11.078Z,444
2018-03-17T08:31:20.722Z,460
2018-03-17T08:32:30.142Z,444
2018-03-17T08:33:39.297Z,416
2018-03-17T08:34:48.505Z,400
2018-03-17T08:35:57.697Z,388
2018-03-17T08:37:06.885Z,396
2018-03-17T08:38:16.064Z,404
2018-03-17T08:39:25.631Z,392
2018-03-17T08:40:34.543Z,400
2018-03-17T08:41:43.501Z,404
2018-03-17T08:42:52.419Z,424
2018-03-17T08:44:01.590Z,412
2018-03-17T08:45:10.801Z,452
2018-03-17T08:46:19.451Z,464
2018-03-17T08:47:28.374Z,468
2018-03-17T08:48:38.092Z,412
2018-03-17T08:49:47.295Z,376
2018-03-17T08:50:56.211Z,384
2018-03-17T08:52:05.127Z,468
2018-03-17T08:53:14.370Z,612
2018-03-17T08:54:24.123Z,584
2018-03-17T08:55:33.341Z,568
2018-03-17T08:56:42.000Z,496
2018-03-17T08:57:50.912Z,488
2018-03-17T08:59:00.155Z,480
2018-03-17T09:00:09.619Z,452
2018-03-17T09:01:19.051Z,360
2018-03-17T09:02:28.732Z,272
2018-03-17T09:03:37.904Z,296
2018-03-17T09:04:47.356Z,312
2018-03-17T09:05:56.788Z,332
2018-03-17T09:07:05.440Z,376
2018-03-17T09:08:14.595Z,400
2018-03-17T09:09:23.281Z,464
2018-03-17T09:10:32.966Z,464
2018-03-17T09:11:41.868Z,424
2018-03-17T09:12:50.518Z,408
2018-03-17T09:13:59.202Z,404
2018-03-17T09:15:07.869Z,396
2018-03-17T09:16:17.325Z,400
2018-03-17T09:17:26.258Z,492
2018-03-17T09:18:35.674Z,528
2018-03-17T09:19:44.336Z,548
2018-03-17T09:20:54.040Z,488
2018-03-17T09:22:03.196Z,492
2018-03-17T09:23:12.626Z,568
2018-03-17T09:24:21.936Z,512
2018-03-17T09:25:31.026Z,508
2018-03-17T09:26:39.968Z,508
2018-03-17T09:27:48.886Z,564
2018-03-17T09:28:57.530Z,512
2018-03-17T09:30:06.980Z,484
2018-03-17T09:31:15.629Z,404
2018-03-17T09:32:24.544Z,388
2018-03-17T09:33:33.725Z,404
2018-03-17T09:34:42.719Z,424
2018-03-17T09:35:52.718Z,452
2018-03-17T09:37:01.930Z,484
2018-03-17T09:38:10.826Z,480
2018-03-17T09:39:20.010Z,476
2018-03-17T09:40:29.180Z,524
2018-03-17T09:41:38.384Z,560
2018-03-17T09:42:47.112Z,484
2018-03-17T09:43:56.773Z,456
2018-03-17T09:45:05.502Z,464
2018-03-17T09:46:14.428Z,512
2018-03-17T09:47:23.081Z,548
2018-03-17T09:48:31.997Z,588
2018-03-17T09:49:41.200Z,616
2018-03-17T09:50:50.391Z,536
2018-03-17T09:51:59.302Z,532
2018-03-17T09:53:09.353Z,552
2018-03-17T09:54:19.070Z,564
2018-03-17T09:55:28.300Z,576
2018-03-17T09:56:37.256Z,536
2018-03-17T09:57:45.907Z,568
2018-03-17T09:58:55.094Z,592
2018-03-17T10:00:04.756Z,556
2018-03-17T10:01:13.701Z,540
2018-03-17T10:02:22.635Z,564
2018-03-17T10:03:31.544Z,580
2018-03-17T10:04:40.731Z,576
2018-03-17T10:05:50.409Z,600
2018-03-17T10:06:59.865Z,620
2018-03-17T10:08:08.513Z,596
2018-03-17T10:09:17.725Z,592
2018-03-17T10:10:26.659Z,588
2018-03-17T10:11:35.825Z,596
2018-03-17T10:12:44.993Z,576
2018-03-17T10:13:53.707Z,584
2018-03-17T10:15:03.133Z,604
2018-03-17T10:16:12.304Z,640
2018-03-17T10:17:21.476Z,668
2018-03-17T10:18:30.988Z,660
2018-03-17T10:19:39.651Z,676
2018-03-17T10:20:48.338Z,672
2018-03-17T10:21:57.519Z,672
2018-03-17T10:23:06.725Z,676
2018-03-17T10:24:15.899Z,700
2018-03-17T10:25:25.325Z,700
2018-03-17T10:26:34.569Z,688
2018-03-17T10:27:43.778Z,716
2018-03-17T10:28:52.709Z,716
2018-03-17T10:30:01.619Z,700
2018-03-17T10:31:10.565Z,696
2018-03-17T10:32:20.266Z,704
2018-03-17T10:33:29.691Z,700
2018-03-17T10:34:39.123Z,712
2018-03-17T10:35:48.593Z,712
2018-03-17T10:36:57.540Z,708
2018-03-17T10:38:07.258Z,692
2018-03-17T10:39:15.901Z,688
2018-03-17T10:40:24.815Z,684
2018-03-17T10:41:33.770Z,688
2018-03-17T10:42:42.948Z,716
2018-03-17T10:43:52.424Z,748
2018-03-17T10:45:01.419Z,708
2018-03-17T10:46:10.568Z,692
2018-03-17T10:47:19.285Z,684
2018-03-17T10:48:28.766Z,692
2018-03-17T10:49:38.206Z,696
2018-03-17T10:50:47.285Z,756
2018-03-17T10:51:56.767Z,776
2018-03-17T10:53:05.720Z,772
2018-03-17T10:54:15.268Z,788
2018-03-17T10:55:24.173Z,812
2018-03-17T10:56:33.749Z,792
2018-03-17T10:57:42.940Z,800
2018-03-17T10:58:51.622Z,812
2018-03-17T11:00:00.864Z,848
2018-03-17T11:01:10.023Z,832
2018-03-17T11:02:19.222Z,812
2018-03-17T11:03:28.157Z,804
2018-03-17T11:04:37.384Z,836
2018-03-17T11:05:46.079Z,832
2018-03-17T11:06:55.006Z,924
2018-03-17T11:08:03.673Z,900
2018-03-17T11:09:13.168Z,872
2018-03-17T11:10:22.098Z,804
2018-03-17T11:11:31.025Z,728
2018-03-17T11:12:40.217Z,808
2018-03-17T11:13:50.230Z,964
2018-03-17T11:14:59.412Z,1000
2018-03-17T11:16:08.867Z,916
2018-03-17T11:17:18.837Z,912
2018-03-17T11:18:27.588Z,904
2018-03-17T11:19:36.810Z,820
2018-03-17T11:20:45.475Z,972
2018-03-17T11:21:54.175Z,1084
2018-03-17T11:23:03.268Z,1180
2018-03-17T11:24:12.821Z,1244
2018-03-17T11:25:22.006Z,1212
2018-03-17T11:26:31.439Z,1228
2018-03-17T11:27:40.368Z,1196
2018-03-17T11:28:49.540Z,1216
2018-03-17T11:29:58.501Z,1228
2018-03-17T11:31:07.440Z,1252
2018-03-17T11:32:16.961Z,1148
2018-03-17T11:33:25.910Z,1196
2018-03-17T11:34:34.852Z,1124
2018-03-17T11:35:43.813Z,1124
2018-03-17T11:36:52.801Z,1276
2018-03-17T11:38:02.004Z,1348
2018-03-17T11:39:11.478Z,1228
2018-03-17T11:40:20.416Z,1180
2018-03-17T11:41:29.963Z,1112
2018-03-17T11:42:39.173Z,1012
2018-03-17T11:43:48.138Z,968
2018-03-17T11:44:56.810Z,944
2018-03-17T11:46:05.768Z,968
2018-03-17T11:47:14.841Z,956
2018-03-17T11:48:24.109Z,992
2018-03-17T11:49:33.066Z,904
2018-03-17T11:50:42.453Z,832
2018-03-17T11:51:51.391Z,824
2018-03-17T11:53:00.100Z,872
2018-03-17T11:54:09.063Z,900
2018-03-17T11:55:17.778Z,912
2018-03-17T11:56:26.980Z,896
2018-03-17T11:57:36.451Z,872
2018-03-17T11:58:45.754Z,824
2018-03-17T11:59:54.927Z,800
2018-03-17T12:01:04.099Z,820
2018-03-17T12:02:13.555Z,844
2018-03-17T12:03:22.500Z,868
2018-03-17T12:04:32.044Z,884
2018-03-17T12:05:40.940Z,864
2018-03-17T12:06:49.610Z,856
2018-03-17T12:07:58.807Z,860
2018-03-17T12:09:07.701Z,860
2018-03-17T12:10:17.323Z,884
2018-03-17T12:11:26.022Z,1000
2018-03-17T12:12:34.942Z,1140
2018-03-17T12:13:44.145Z,1172
2018-03-17T12:14:53.356Z,1156
2018-03-17T12:16:02.548Z,1112
2018-03-17T12:17:11.725Z,1100
2018-03-17T12:18:20.655Z,1164
2018-03-17T12:19:29.824Z,1184
2018-03-17T12:20:39.296Z,1244
2018-03-17T12:21:48.202Z,1228
2018-03-17T12:22:57.681Z,1296
2018-03-17T12:24:06.987Z,1332
2018-03-17T12:25:15.919Z,1296
2018-03-17T12:26:25.106Z,1236
2018-03-17T12:27:34.060Z,1148
2018-03-17T12:28:43.764Z,1060
2018-03-17T12:29:53.022Z,1076
2018-03-17T12:31:02.459Z,1080
2018-03-17T12:32:11.375Z,1180
2018-03-17T12:33:20.361Z,1160
2018-03-17T12:34:29.007Z,1128
2018-03-17T12:35:38.168Z,1132
2018-03-17T12:36:47.072Z,1136
2018-03-17T12:37:56.283Z,1104
2018-03-17T12:39:05.709Z,1072
2018-03-17T12:40:14.362Z,1112
2018-03-17T12:41:23.027Z,1152
2018-03-17T12:42:32.714Z,1156
2018-03-17T12:43:42.144Z,1176
2018-03-17T12:44:51.072Z,1148
2018-03-17T12:45:59.773Z,1036
2018-03-17T12:47:09.566Z,956
2018-03-17T12:48:19.250Z,924
2018-03-17T12:49:28.191Z,940
2018-03-17T12:50:37.890Z,920
2018-03-17T12:51:46.805Z,892
2018-03-17T12:52:55.730Z,832
2018-03-17T12:54:05.435Z,784
2018-03-17T12:55:14.664Z,772
2018-03-17T12:56:23.831Z,848
2018-03-17T12:57:32.493Z,728
2018-03-17T12:58:41.909Z,652
2018-03-17T12:59:50.833Z,648
2018-03-17T13:00:59.774Z,668
2018-03-17T13:02:08.961Z,700
2018-03-17T13:03:18.120Z,772
2018-03-17T13:04:27.043Z,836
2018-03-17T13:05:36.230Z,856
2018-03-17T13:06:45.400Z,852
2018-03-17T13:07:54.339Z,824
2018-03-17T13:09:03.766Z,812
2018-03-17T13:10:12.666Z,784
2018-03-17T13:11:21.880Z,768
2018-03-17T13:12:30.801Z,780
2018-03-17T13:13:39.707Z,808
2018-03-17T13:14:48.923Z,816
2018-03-17T13:15:57.575Z,852
2018-03-17T13:17:06.508Z,836
2018-03-17T13:18:15.710Z,800
2018-03-17T13:19:24.971Z,792
2018-03-17T13:20:34.468Z,792
2018-03-17T13:21:43.916Z,748
2018-03-17T13:22:53.368Z,688
2018-03-17T13:24:02.028Z,644
2018-03-17T13:25:11.510Z,636
2018-03-17T13:26:20.952Z,660
2018-03-17T13:27:30.676Z,676
2018-03-17T13:28:39.838Z,668
2018-03-17T13:29:49.270Z,672
2018-03-17T13:30:58.210Z,684
2018-03-17T13:32:07.672Z,692
2018-03-17T13:33:16.692Z,724
2018-03-17T13:34:25.654Z,748
2018-03-17T13:35:34.880Z,736
2018-03-17T13:36:43.783Z,684
2018-03-17T13:37:52.483Z,624
2018-03-17T13:39:01.971Z,568
2018-03-17T13:40:10.940Z,540
2018-03-17T13:41:20.402Z,540
2018-03-17T13:42:29.830Z,544
2018-03-17T13:43:38.522Z,556
2018-03-17T13:44:47.746Z,568
2018-03-17T13:45:56.924Z,616
2018-03-17T13:47:06.340Z,652
2018-03-17T13:48:15.019Z,676
2018-03-17T13:49:24.218Z,692
2018-03-17T13:50:33.160Z,704
2018-03-17T13:51:42.597Z,724
2018-03-17T13:52:52.072Z,732
2018-03-17T13:54:01.002Z,708
2018-03-17T13:55:09.667Z,676
2018-03-17T13:56:18.829Z,680
2018-03-17T13:57:28.010Z,716
2018-03-17T13:58:37.788Z,732
2018-03-17T13:59:47.027Z,688
2018-03-17T14:00:55.680Z,656
2018-03-17T14:02:04.852Z,672
2018-03-17T14:03:13.785Z,676
2018-03-17T14:04:22.424Z,672
2018-03-17T14:05:31.088Z,700
2018-03-17T14:06:40.256Z,696
2018-03-17T14:07:49.194Z,656
2018-03-17T14:08:57.860Z,660
2018-03-17T14:10:06.548Z,720
2018-03-17T14:11:15.793Z,756
2018-03-17T14:12:24.704Z,792
2018-03-17T14:13:33.393Z,748
2018-03-17T14:14:42.301Z,732
2018-03-17T14:15:51.213Z,704
2018-03-17T14:17:00.140Z,676
2018-03-17T14:18:08.797Z,648
2018-03-17T14:19:17.718Z,604
2018-03-17T14:20:27.147Z,564
2018-03-17T14:21:36.310Z,568
2018-03-17T14:22:45.725Z,584
2018-03-17T14:23:54.718Z,588
2018-03-17T14:25:03.639Z,616
2018-03-17T14:26:12.538Z,624
2018-03-17T14:27:21.436Z,644
2018-03-17T14:28:30.364Z,648
2018-03-17T14:29:38.996Z,672
2018-03-17T14:30:48.156Z,636
2018-03-17T14:31:57.337Z,616
2018-03-17T14:33:05.995Z,612
2018-03-17T14:34:14.908Z,640
2018-03-17T14:35:23.585Z,656
2018-03-17T14:36:32.227Z,676
2018-03-17T14:37:41.649Z,700
2018-03-17T14:39:41.427Z,8
2018-03-17T14:40:50.417Z,8
2018-03-17T14:41:59.613Z,4
2018-03-17T14:43:09.162Z,4
2018-03-17T14:44:18.639Z,4
2018-03-17T14:45:27.353Z,4
2018-03-17T14:46:36.879Z,4
2018-03-17T14:47:45.822Z,4
2018-03-17T14:48:55.339Z,4
2018-03-17T14:50:04.800Z,4
2018-03-17T14:51:13.981Z,4
2018-03-17T14:52:23.352Z,4
2018-03-17T14:53:32.886Z,4
2018-03-17T14:54:42.521Z,4
2018-03-17T14:55:51.207Z,4
2018-03-17T14:56:59.940Z,4
2018-03-17T14:58:09.253Z,4
2018-03-17T14:59:18.338Z,4
2018-03-17T15:00:27.705Z,4
2018-03-17T15:01:36.972Z,4
2018-03-17T15:02:46.001Z,4
2018-03-17T15:03:54.973Z,4
2018-03-17T15:05:03.752Z,4
2018-03-17T15:06:13.060Z,4
2018-03-17T15:07:22.142Z,4
2018-03-17T15:08:33.735Z,8
2018-03-17T15:09:43.228Z,8
2018-03-17T15:10:52.566Z,8
2018-03-17T15:12:01.929Z,8
2018-03-17T15:13:11.103Z,8
2018-03-17T15:14:22.098Z,8
2018-03-17T15:15:31.777Z,8
2018-03-17T15:16:41.928Z,8
2018-03-17T15:17:51.279Z,8
2018-03-17T15:19:00.760Z,8
2018-03-17T15:20:09.632Z,4
2018-03-17T15:21:19.164Z,4
2018-03-17T15:22:29.527Z,4
2018-03-17T15:23:39.761Z,4
2018-03-17T15:24:49.082Z,4
2018-03-17T15:25:58.829Z,4
2018-03-17T15:27:07.798Z,4
2018-03-17T15:28:17.051Z,4
2018-03-17T15:29:27.225Z,4
2018-03-17T15:30:36.840Z,4
2018-03-17T15:31:45.932Z,4
2018-03-17T15:32:55.161Z,4
2018-03-17T15:34:05.476Z,8
2018-03-17T15:35:15.319Z,8
2018-03-17T15:36:24.326Z,8
2018-03-17T15:37:33.628Z,8
2018-03-17T15:38:42.961Z,4
2018-03-17T15:39:52.016Z,4
2018-03-17T15:41:00.741Z,4
2018-03-17T15:42:09.996Z,4
2018-03-17T15:43:19.161Z,4
2018-03-17T15:44:28.083Z,4
2018-03-17T15:45:36.793Z,4
2018-03-17T15:46:45.762Z,8
2018-03-17T15:47:54.740Z,8
2018-03-17T15:49:04.031Z,8
2018-03-17T15:50:13.169Z,8
2018-03-17T15:51:22.442Z,8
2018-03-17T15:52:32.649Z,8
2018-03-17T15:53:41.976Z,8
2018-03-17T15:54:51.051Z,8
2018-03-17T15:56:01.041Z,8
2018-03-17T15:57:10.682Z,4
2018-03-17T15:58:19.895Z,4
2018-03-17T15:59:29.154Z,4
2018-03-17T16:00:38.365Z,4
2018-03-17T16:01:47.324Z,4
2018-03-17T16:02:56.629Z,4
2018-03-17T16:04:05.884Z,4
2018-03-17T16:05:15.133Z,4
2018-03-17T16:06:24.150Z,0
2018-03-17T16:07:33.159Z,0
2018-03-17T16:08:42.823Z,0
2018-03-17T16:09:52.167Z,0
2018-03-17T16:11:01.853Z,0
2018-03-17T16:12:11.018Z,4
2018-03-17T16:13:20.915Z,4
2018-03-17T16:14:30.574Z,4
2018-03-17T16:15:40.076Z,4
2018-03-17T16:16:49.323Z,4
2018-03-17T16:17:58.645Z,4
2018-03-17T16:19:07.861Z,4
2018-03-17T16:20:17.597Z,4
2018-03-17T16:21:26.554Z,4
2018-03-17T16:22:35.856Z,4